Time;durP1;ratioP1;P1;durP2;ratioP2;P2;SDS_P1;SDS_P2;PMS_P1;PMS_P2;Temp;Humidity;BMP_temperature;BMP_pressure;BME280_temperature;BME280_humidity;BME280_pressure;Samples;Min_cycle;Max_cycle;Signal;HPM_P1;HPM_P2
2022/07/19 04:01:54;;;;;;;5.70;5.10;;;20.10;96.00;;;;;;5293498;23;20982;-63
2022/07/19 04:04:21;;;;;;;5.17;4.77;;;20.10;96.40;;;;;;4974886;28;20455;-63
2022/07/19 04:06:48;;;;;;;5.30;4.70;;;20.00;96.80;;;;;;4975873;28;20466;-64
2022/07/19 04:09:14;;;;;;;4.73;4.33;;;20.10;97.00;;;;;;4975929;28;20989;-64
2022/07/19 04:11:41;;;;;;;5.10;4.60;;;20.20;97.30;;;;;;4975806;28;20485;-63
2022/07/19 04:14:08;;;;;;;8.90;6.13;;;20.20;97.50;;;;;;4975292;28;20463;-63
2022/07/19 04:16:35;;;;;;;4.50;4.10;;;20.20;97.50;;;;;;4975645;28;20447;-63
2022/07/19 04:19:03;;;;;;;5.33;4.93;;;20.20;97.00;;;;;;4975563;28;20451;-63
2022/07/19 04:21:30;;;;;;;5.80;5.30;;;20.20;97.60;;;;;;4975330;28;21020;-64
2022/07/19 04:23:57;;;;;;;6.50;5.90;;;20.20;97.10;;;;;;4975295;28;20902;-63
2022/07/19 04:26:24;;;;;;;5.50;5.10;;;20.20;97.10;;;;;;4975400;28;20461;-63
2022/07/19 04:28:50;;;;;;;5.60;5.23;;;20.10;97.50;;;;;;4976201;28;20549;-64
2022/07/19 04:31:17;;;;;;;5.90;5.50;;;20.10;97.70;;;;;;4980276;28;20475;-63
2022/07/19 04:33:44;;;;;;;9.77;5.60;;;20.10;98.20;;;;;;4977955;28;20455;-63
2022/07/19 04:36:12;;;;;;;5.40;4.83;;;20.00;98.40;;;;;;4975677;28;20459;-63
2022/07/19 04:38:39;;;;;;;7.80;5.20;;;20.10;98.70;;;;;;4975173;28;20454;-64
2022/07/19 04:41:05;;;;;;;7.13;5.87;;;20.10;98.70;;;;;;4975972;28;20968;-63
2022/07/19 04:43:32;;;;;;;5.27;4.87;;;20.20;98.80;;;;;;4975316;28;20569;-64
2022/07/19 04:45:59;;;;;;;7.57;5.13;;;20.10;98.70;;;;;;4975377;28;20513;-64
2022/07/19 04:48:26;;;;;;;5.77;5.27;;;20.20;98.90;;;;;;4974971;28;20482;-63
2022/07/19 04:50:54;;;;;;;7.50;5.97;;;20.10;99.20;;;;;;4975238;28;20891;-63
2022/07/19 04:53:22;;;;;;;9.00;5.77;;;20.10;99.90;;;;;;4975752;28;20473;-63
2022/07/19 04:55:48;;;;;;;8.57;6.17;;;20.10;99.70;;;;;;4975582;28;20458;-64
2022/07/19 04:58:15;;;;;;;5.80;5.30;;;20.20;99.90;;;;;;4975165;28;20459;-63
2022/07/19 05:00:43;;;;;;;5.97;5.37;;;20.20;99.90;;;;;;4974799;28;20530;-64
2022/07/19 05:03:10;;;;;;;7.63;5.73;;;20.30;99.90;;;;;;4975265;28;20443;-64
2022/07/19 05:05:36;;;;;;;6.80;6.30;;;20.30;99.90;;;;;;4974646;28;20859;-64
2022/07/19 05:08:04;;;;;;;8.37;6.43;;;20.30;99.90;;;;;;4974874;28;20470;-62
2022/07/19 05:10:32;;;;;;;6.80;4.43;;;20.40;99.90;;;;;;4974818;28;20486;-65
2022/07/19 05:12:59;;;;;;;5.60;5.10;;;20.50;99.90;;;;;;4974910;28;20517;-65
2022/07/19 05:15:26;;;;;;;6.40;5.80;;;20.70;99.90;;;;;;4975679;28;20458;-65
2022/07/19 05:17:53;;;;;;;10.80;5.87;;;20.70;99.90;;;;;;4978970;28;20454;-65
2022/07/19 05:20:19;;;;;;;7.00;6.40;;;20.60;99.90;;;;;;4978578;28;20466;-65
2022/07/19 05:22:46;;;;;;;6.80;6.20;;;20.60;99.90;;;;;;4978473;28;20455;-65
2022/07/19 05:25:13;;;;;;;9.03;5.83;;;20.60;99.90;;;;;;4978876;28;20545;-64
2022/07/19 05:27:43;;;;;;;5.97;5.57;;;20.70;99.90;;;;;;4978300;28;20454;-64
2022/07/19 05:30:11;;;;;;;8.00;5.40;;;20.80;99.90;;;;;;4978105;28;20493;-65
2022/07/19 05:32:38;;;;;;;11.07;5.43;;;20.90;99.90;;;;;;4978699;28;20465;-64
2022/07/19 05:35:05;;;;;;;7.60;5.97;;;21.10;99.90;;;;;;4978025;28;20462;-64
2022/07/19 05:37:32;;;;;;;6.73;5.23;;;21.20;99.90;;;;;;4978029;28;20458;-64
2022/07/19 05:39:59;;;;;;;6.03;5.43;;;21.40;99.20;;;;;;4977959;28;20865;-63
2022/07/19 05:42:26;;;;;;;6.67;6.17;;;21.50;98.40;;;;;;4977727;28;20478;-63
2022/07/19 05:44:55;;;;;;;9.20;4.80;;;21.60;98.20;;;;;;4977869;28;20455;-65
2022/07/19 05:47:21;;;;;;;8.23;5.20;;;21.70;98.40;;;;;;4978805;28;20790;-65
2022/07/19 05:49:48;;;;;;;5.90;5.30;;;21.80;98.30;;;;;;4977859;28;20489;-68
2022/07/19 05:52:15;;;;;;;5.30;4.90;;;21.90;97.60;;;;;;4977915;28;20478;-67
2022/07/19 05:54:42;;;;;;;5.13;4.77;;;22.10;96.90;;;;;;4977608;28;20442;-67
2022/07/19 05:57:08;;;;;;;6.10;5.10;;;22.20;95.70;;;;;;4977898;28;20462;-69
2022/07/19 05:59:35;;;;;;;5.20;4.77;;;22.30;95.60;;;;;;4978167;28;20458;-68
2022/07/19 06:02:03;;;;;;;4.77;4.33;;;22.40;95.80;;;;;;4977538;28;20486;-68
2022/07/19 06:04:31;;;;;;;6.17;5.13;;;22.50;95.00;;;;;;4978088;28;20506;-67
2022/07/19 06:06:57;;;;;;;5.10;4.70;;;22.70;94.60;;;;;;4978297;28;20458;-68
2022/07/19 06:09:24;;;;;;;4.93;4.33;;;22.90;93.20;;;;;;4978287;28;20482;-68
2022/07/19 06:11:52;;;;;;;7.10;4.80;;;23.10;92.50;;;;;;4978171;28;20474;-68
2022/07/19 06:14:19;;;;;;;6.27;4.50;;;23.30;92.00;;;;;;4978185;28;20549;-68
2022/07/19 06:16:46;;;;;;;6.10;4.50;;;23.50;90.90;;;;;;4978290;28;20456;-69
2022/07/19 06:19:14;;;;;;;4.63;3.90;;;23.60;90.50;;;;;;4978114;28;20937;-69
2022/07/19 06:21:41;;;;;;;5.40;4.23;;;23.80;90.50;;;;;;4978123;28;20486;-69
2022/07/19 06:24:07;;;;;;;5.73;4.50;;;24.00;90.00;;;;;;4979052;28;20454;-70
2022/07/19 06:26:34;;;;;;;9.00;4.17;;;24.20;86.70;;;;;;4977584;28;20462;-70
2022/07/19 06:29:01;;;;;;;5.10;3.57;;;24.50;86.00;;;;;;4979619;28;20474;-70
2022/07/19 06:31:27;;;;;;;7.00;3.33;;;24.50;80.60;;;;;;4984030;28;20477;-70
2022/07/19 06:33:54;;;;;;;4.83;4.27;;;24.70;77.90;;;;;;4985416;28;20938;-71
2022/07/19 06:36:22;;;;;;;3.60;3.30;;;24.80;77.80;;;;;;4981945;28;20510;-70
2022/07/19 06:38:49;;;;;;;4.20;3.47;;;25.00;76.60;;;;;;4976996;28;20454;-70
2022/07/19 06:41:16;;;;;;;7.53;3.60;;;25.30;76.60;;;;;;4976769;28;20453;-70
2022/07/19 06:43:44;;;;;;;6.43;3.90;;;25.60;76.30;;;;;;4978706;28;20459;-70
2022/07/19 06:46:10;;;;;;;4.03;3.60;;;25.70;76.50;;;;;;4979382;28;20454;-69
2022/07/19 06:48:37;;;;;;;3.53;3.33;;;25.90;74.10;;;;;;4978518;28;20479;-69
2022/07/19 06:51:06;;;;;;;3.37;3.17;;;26.20;73.90;;;;;;4978056;28;20478;-69
2022/07/19 06:53:35;;;;;;;4.33;3.17;;;26.30;71.50;;;;;;4976657;28;20455;-70
2022/07/19 06:56:02;;;;;;;8.77;4.20;;;26.70;70.50;;;;;;4976952;28;20454;-69
2022/07/19 06:58:29;;;;;;;3.93;3.33;;;27.30;69.90;;;;;;4976793;28;20465;-70
2022/07/19 07:00:56;;;;;;;3.47;3.27;;;28.00;67.00;;;;;;4975888;28;20542;-69
2022/07/19 07:03:23;;;;;;;4.07;3.43;;;28.70;63.60;;;;;;4976312;28;20458;-70
2022/07/19 07:05:50;;;;;;;5.20;3.10;;;29.30;59.80;;;;;;4975973;28;20461;-70
2022/07/19 07:08:17;;;;;;;5.97;3.80;;;30.00;59.10;;;;;;4975880;28;20465;-70
2022/07/19 07:10:45;;;;;;;6.20;3.00;;;30.60;58.00;;;;;;4976117;28;20483;-69
2022/07/19 07:13:12;;;;;;;5.40;2.77;;;31.30;56.40;;;;;;4976162;28;20454;-70
2022/07/19 07:15:39;;;;;;;3.40;3.10;;;32.00;55.30;;;;;;4976229;28;20462;-71
2022/07/19 07:18:06;;;;;;;5.03;2.80;;;32.60;54.50;;;;;;4976192;28;20814;-69
2022/07/19 07:20:34;;;;;;;3.10;2.80;;;33.10;52.40;;;;;;4976039;28;20470;-70
2022/07/19 07:23:01;;;;;;;2.87;2.67;;;33.60;51.10;;;;;;4977086;28;20456;-70
2022/07/19 07:25:28;;;;;;;3.73;2.40;;;34.20;50.00;;;;;;4977540;28;20461;-70
2022/07/19 07:27:56;;;;;;;3.33;2.33;;;34.80;47.90;;;;;;4977015;28;20454;-70
2022/07/19 07:30:23;;;;;;;5.40;2.53;;;35.20;47.40;;;;;;4977574;28;20489;-70
2022/07/19 07:32:50;;;;;;;5.63;2.60;;;35.60;45.80;;;;;;4975908;28;20462;-70
2022/07/19 07:35:17;;;;;;;2.60;2.40;;;35.70;44.80;;;;;;4978457;28;20465;-69
2022/07/19 07:37:43;;;;;;;2.57;2.40;;;35.80;45.10;;;;;;4976381;28;20945;-68
2022/07/19 07:40:11;;;;;;;2.60;2.40;;;35.80;43.80;;;;;;4984708;28;20454;-69
2022/07/19 07:42:38;;;;;;;5.50;2.83;;;36.10;44.30;;;;;;4997119;28;20438;-68
2022/07/19 07:45:09;;;;;;;3.37;2.60;;;36.50;45.30;;;;;;4978118;28;20464;-68
2022/07/19 07:47:36;;;;;;;2.73;2.53;;;36.90;43.30;;;;;;4977367;28;20446;-69
2022/07/19 07:50:04;;;;;;;2.93;2.40;;;36.90;43.30;;;;;;4976723;28;20515;-68
2022/07/19 07:52:31;;;;;;;2.73;2.53;;;37.30;42.70;;;;;;4977144;28;20837;-68
2022/07/19 07:54:58;;;;;;;5.30;2.50;;;37.60;41.90;;;;;;4976785;28;20461;-68
2022/07/19 07:57:24;;;;;;;2.40;2.23;;;37.90;41.50;;;;;;4976628;28;20466;-69
2022/07/19 07:59:51;;;;;;;2.30;2.20;;;38.00;41.20;;;;;;4975611;28;20454;-69
2022/07/19 08:02:20;;;;;;;3.30;2.43;;;38.40;40.80;;;;;;4977416;28;20489;-69
2022/07/19 08:04:46;;;;;;;2.63;2.20;;;38.50;41.50;;;;;;4976326;28;20518;-69
2022/07/19 08:07:13;;;;;;;3.77;3.10;;;38.80;39.50;;;;;;4975851;28;20458;-69
2022/07/19 08:09:40;;;;;;;4.40;2.53;;;39.10;39.40;;;;;;4975006;28;20989;-69
2022/07/19 08:12:07;;;;;;;4.17;2.60;;;39.50;38.10;;;;;;4975291;28;20510;-69
2022/07/19 08:14:34;;;;;;;2.73;2.00;;;39.80;37.60;;;;;;4975802;28;20458;-69
2022/07/19 08:17:00;;;;;;;2.40;2.20;;;39.70;37.90;;;;;;4975297;28;20254;-67
2022/07/19 08:19:28;;;;;;;2.53;2.00;;;39.80;37.70;;;;;;4975274;28;20199;-69
2022/07/19 08:21:55;;;;;;;3.40;2.37;;;40.20;37.30;;;;;;4975322;28;20225;-69
2022/07/19 08:24:22;;;;;;;2.83;2.10;;;40.60;37.30;;;;;;4975547;28;20203;-68
2022/07/19 08:26:49;;;;;;;2.53;2.03;;;40.70;36.40;;;;;;4975301;28;20198;-68
2022/07/19 08:29:15;;;;;;;2.27;2.17;;;41.10;35.80;;;;;;4974761;28;20215;-69
2022/07/19 08:31:42;;;;;;;2.30;2.10;;;40.60;37.00;;;;;;4975022;28;20226;-68
2022/07/19 08:34:09;;;;;;;2.03;1.97;;;40.90;35.70;;;;;;4974682;28;20205;-70
2022/07/19 08:36:37;;;;;;;1.90;1.80;;;41.00;34.10;;;;;;4975133;28;20574;-68
2022/07/19 08:39:04;;;;;;;4.25;2.10;;;41.30;33.70;;;;;;4974604;28;20677;-68
2022/07/19 08:41:30;;;;;;;2.73;2.00;;;41.30;34.10;;;;;;4974789;28;20705;-68
2022/07/19 08:44:00;;;;;;;3.03;1.80;;;40.80;32.40;;;;;;4975260;28;20195;-68
2022/07/19 08:46:27;;;;;;;2.17;2.03;;;40.10;32.80;;;;;;4975105;28;20203;-68
2022/07/19 08:48:55;;;;;;;3.20;2.30;;;39.70;34.50;;;;;;4974717;28;20824;-68
2022/07/19 08:51:23;;;;;;;2.20;2.00;;;39.40;34.00;;;;;;4978032;28;21015;-68
2022/07/19 08:53:51;;;;;;;5.73;2.33;;;39.20;35.00;;;;;;4979066;28;20464;-69
2022/07/19 08:59:04;;;;;;;2.77;1.70;;;38.80;34.10;;;;;;4981128;28;20545;-70
2022/07/19 09:01:31;;;;;;;2.37;2.17;;;38.90;34.80;;;;;;4980301;28;20486;-71
2022/07/19 09:04:08;;;;;;;1.87;1.77;;;39.30;34.80;;;;;;4979750;28;20891;-70
2022/07/19 09:06:40;;;;;;;4.07;2.03;;;39.20;33.40;;;;;;4979374;28;20475;-70
2022/07/19 09:09:09;;;;;;;3.70;2.13;;;39.70;34.00;;;;;;4979697;28;20996;-70
2022/07/19 09:11:38;;;;;;;2.50;2.20;;;40.10;33.10;;;;;;4981487;28;20474;-70
2022/07/19 09:14:05;;;;;;;2.80;2.20;;;40.30;32.90;;;;;;4984137;28;20254;-69
2022/07/19 09:16:56;;;;;;;4.33;2.77;;;40.60;32.30;;;;;;4983132;28;20203;-69
2022/07/19 09:19:24;;;;;;;4.40;1.83;;;40.70;34.60;;;;;;4979809;28;20199;-70
2022/07/19 09:22:01;;;;;;;3.63;2.53;;;41.00;32.90;;;;;;4980356;28;20222;-70
2022/07/19 09:24:31;;;;;;;3.83;2.10;;;41.20;32.10;;;;;;4980048;28;20183;-70
2022/07/19 09:27:01;;;;;;;4.60;2.10;;;41.20;31.60;;;;;;4980108;28;20281;-69
2022/07/19 09:29:29;;;;;;;2.38;2.10;;;41.40;31.50;;;;;;4980926;28;20215;-71
2022/07/19 09:32:00;;;;;;;4.05;2.30;;;41.50;31.40;;;;;;4979838;28;20215;-70
2022/07/19 09:34:28;;;;;;;5.15;2.10;;;41.50;31.90;;;;;;4980178;28;20203;-70
2022/07/19 09:37:08;;;;;;;2.50;2.30;;;41.60;31.30;;;;;;4980761;28;20283;-71
2022/07/19 09:39:39;;;;;;;2.85;2.20;;;41.80;32.20;;;;;;4978030;28;20631;-70
2022/07/19 09:42:06;;;;;;;8.23;1.85;;;42.10;31.00;;;;;;4978455;28;20215;-71
2022/07/19 09:44:32;;;;;;;1.85;1.85;;;42.20;29.70;;;;;;4984351;28;20210;-70
2022/07/19 09:46:59;;;;;;;2.63;2.42;;;42.00;29.80;;;;;;4988922;28;20203;-69
2022/07/19 09:49:27;;;;;;;6.13;2.50;;;41.70;30.20;;;;;;4977776;28;20207;-69
2022/07/19 09:51:55;;;;;;;2.53;2.33;;;41.60;31.10;;;;;;4977528;28;20337;-70
2022/07/19 09:54:23;;;;;;;2.55;2.10;;;41.80;30.20;;;;;;4977646;28;20195;-70
2022/07/19 09:56:53;;;;;;;3.15;2.35;;;41.80;29.70;;;;;;4977705;28;20203;-70
2022/07/19 09:59:22;;;;;;;2.45;2.35;;;42.10;29.30;;;;;;4977803;28;20203;-70
2022/07/19 10:01:51;;;;;;;4.38;2.40;;;42.20;29.10;;;;;;4976054;28;20233;-69
2022/07/19 10:04:20;;;;;;;7.32;2.70;;;42.30;29.50;;;;;;4976902;28;20641;-70
2022/07/19 10:06:48;;;;;;;2.40;2.20;;;41.80;29.30;;;;;;4977426;28;20273;-70
2022/07/19 10:09:17;;;;;;;3.00;2.78;;;41.30;29.50;;;;;;4977200;28;20199;-69
2022/07/19 10:11:44;;;;;;;3.47;2.83;;;40.90;29.20;;;;;;4977408;28;20230;-69
2022/07/19 10:14:13;;;;;;;4.07;2.90;;;40.70;29.40;;;;;;4977625;28;20199;-69
2022/07/19 10:16:51;;;;;;;2.83;2.23;;;40.50;29.20;;;;;;4977456;28;20194;-69
2022/07/19 10:19:20;;;;;;;3.03;2.73;;;40.40;29.80;;;;;;4977316;28;20186;-70
2022/07/19 10:21:48;;;;;;;4.77;2.43;;;40.60;30.00;;;;;;4977095;28;20222;-69
2022/07/19 10:24:15;;;;;;;4.43;2.80;;;40.90;29.60;;;;;;4976878;28;20666;-70
2022/07/19 10:26:43;;;;;;;3.08;2.78;;;41.10;30.40;;;;;;4976818;28;20565;-70
2022/07/19 10:29:15;;;;;;;3.60;2.95;;;41.40;29.30;;;;;;4977471;28;20213;-70
2022/07/19 10:31:43;;;;;;;3.05;2.75;;;41.90;28.90;;;;;;4976895;28;20218;-70
2022/07/19 10:34:21;;;;;;;3.25;3.05;;;42.20;29.80;;;;;;4977079;28;20552;-70
2022/07/19 10:36:49;;;;;;;2.80;2.70;;;42.30;29.00;;;;;;4976987;28;20187;-70
2022/07/19 10:39:34;;;;;;;2.88;2.67;;;42.50;28.90;;;;;;4976952;28;20289;-70
2022/07/19 10:42:23;;;;;;;2.63;2.53;;;42.30;28.70;;;;;;4976556;28;20219;-69
2022/07/19 10:45:18;;;;;;;6.18;3.03;;;42.10;29.30;;;;;;4977815;28;20179;-69
2022/07/19 10:48:08;;;;;;;6.10;3.00;;;42.00;28.80;;;;;;4976757;28;20219;-70
2022/07/19 10:50:58;;;;;;;3.20;3.00;;;41.60;28.90;;;;;;4978378;28;20249;-70
2022/07/19 10:53:57;;;;;;;4.88;3.00;;;41.70;29.10;;;;;;4976647;28;20191;-69
2022/07/19 10:56:36;;;;;;;4.22;2.85;;;41.80;29.20;;;;;;4972930;28;20206;-69
2022/07/19 10:59:07;;;;;;;3.08;2.90;;;41.60;28.90;;;;;;4976781;28;20236;-65
2022/07/19 11:01:37;;;;;;;3.10;2.80;;;41.60;29.10;;;;;;4976284;28;20231;-66
2022/07/19 11:04:23;;;;;;;2.60;2.40;;;41.80;29.40;;;;;;4976116;28;20657;-65
2022/07/19 11:06:51;;;;;;;2.97;2.70;;;41.90;30.20;;;;;;4976039;28;20179;-65
2022/07/19 11:09:17;;;;;;;5.18;2.22;;;42.10;29.40;;;;;;4975358;28;20461;-65
2022/07/19 11:11:44;;;;;;;3.03;2.80;;;41.80;29.00;;;;;;4975898;28;20732;-65
2022/07/19 11:14:12;;;;;;;3.25;2.97;;;41.60;29.30;;;;;;4975836;28;20203;-65
2022/07/19 11:16:41;;;;;;;3.00;2.80;;;42.00;29.60;;;;;;4976318;28;20253;-65
2022/07/19 11:19:09;;;;;;;3.00;2.80;;;42.20;29.20;;;;;;4976119;28;20222;-65
2022/07/19 11:21:37;;;;;;;4.88;3.72;;;42.00;28.60;;;;;;4976091;28;20226;-65
2022/07/19 11:24:05;;;;;;;3.83;3.33;;;41.60;29.10;;;;;;4975968;28;20207;-65
2022/07/19 11:26:37;;;;;;;9.10;3.25;;;41.30;29.30;;;;;;4976182;28;20202;-65
2022/07/19 11:29:04;;;;;;;3.63;2.85;;;41.20;30.20;;;;;;4976271;28;20215;-65
2022/07/19 11:31:31;;;;;;;3.67;2.90;;;41.10;29.70;;;;;;4978347;28;20621;-65
2022/07/19 11:34:00;;;;;;;3.10;2.63;;;41.10;29.20;;;;;;4980411;28;20198;-65
2022/07/19 11:36:28;;;;;;;2.53;2.42;;;40.90;29.00;;;;;;4978346;28;20695;-65
2022/07/19 11:38:56;;;;;;;3.90;2.93;;;40.70;28.90;;;;;;4977525;28;20226;-66
2022/07/19 11:41:25;;;;;;;2.60;2.40;;;40.20;29.50;;;;;;4975900;28;20221;-66
2022/07/19 11:43:53;;;;;;;3.83;3.10;;;39.70;29.70;;;;;;4983710;28;20206;-65
2022/07/19 11:46:21;;;;;;;2.97;2.87;;;39.20;30.20;;;;;;4990811;28;20450;-64
2022/07/19 11:48:49;;;;;;;3.07;2.87;;;38.60;30.20;;;;;;4980078;28;20199;-65
2022/07/19 11:51:18;;;;;;;5.73;2.60;;;38.00;30.70;;;;;;4975305;28;21048;-65
2022/07/19 11:53:50;;;;;;;2.50;2.30;;;37.70;30.80;;;;;;4975591;28;20450;-65
2022/07/19 11:56:19;;;;;;;2.93;2.73;;;37.60;31.80;;;;;;4975642;28;20449;-65
2022/07/19 11:58:46;;;;;;;6.93;2.90;;;37.60;31.70;;;;;;4975717;28;20508;-65
2022/07/19 12:01:13;;;;;;;2.80;2.50;;;37.60;31.30;;;;;;4975650;28;20532;-65
2022/07/19 12:03:40;;;;;;;3.27;2.83;;;37.70;31.20;;;;;;4976549;28;20813;-66
2022/07/19 12:06:08;;;;;;;4.33;2.90;;;37.90;32.30;;;;;;4979007;28;20450;-65
2022/07/19 12:08:40;;;;;;;3.17;2.97;;;37.90;31.40;;;;;;4980199;28;20461;-65
2022/07/19 12:11:18;;;;;;;4.50;2.63;;;37.90;31.30;;;;;;4976016;28;20513;-66
2022/07/19 12:13:45;;;;;;;4.23;2.60;;;37.70;30.90;;;;;;4975825;28;20489;-65
2022/07/19 12:16:13;;;;;;;3.13;2.53;;;37.70;31.10;;;;;;4975473;28;20462;-66
2022/07/19 12:18:53;;;;;;;3.70;3.00;;;37.70;31.50;;;;;;4975538;28;20458;-65
2022/07/19 12:21:26;;;;;;;4.90;3.50;;;37.70;32.30;;;;;;4976244;28;20529;-64
2022/07/19 12:24:14;;;;;;;3.63;2.73;;;37.80;32.20;;;;;;4974904;28;20454;-65
2022/07/19 12:26:42;;;;;;;5.17;3.00;;;37.80;31.90;;;;;;4974370;28;20454;-65
2022/07/19 12:29:23;;;;;;;7.03;2.80;;;37.70;32.00;;;;;;4974770;28;20946;-65
2022/07/19 12:31:51;;;;;;;2.97;2.77;;;37.60;31.50;;;;;;4975073;28;20489;-65
2022/07/19 12:34:18;;;;;;;3.20;2.83;;;37.70;32.40;;;;;;4975017;28;20461;-65
2022/07/19 12:36:46;;;;;;;6.70;3.63;;;37.80;32.40;;;;;;4974943;28;20480;-65
2022/07/19 12:39:26;;;;;;;3.87;3.13;;;37.70;31.90;;;;;;4974993;28;20481;-65
2022/07/19 12:42:02;;;;;;;3.10;2.90;;;37.60;31.50;;;;;;4974913;28;20474;-65
2022/07/19 12:44:29;;;;;;;4.63;3.37;;;37.40;31.90;;;;;;4974664;28;20925;-65
2022/07/19 12:46:56;;;;;;;3.43;3.03;;;37.20;31.70;;;;;;4974820;28;20458;-65
2022/07/19 12:49:23;;;;;;;4.70;3.03;;;37.20;33.00;;;;;;4974809;28;20458;-65
2022/07/19 12:51:50;;;;;;;3.47;3.17;;;37.40;33.10;;;;;;4974279;28;20989;-65
2022/07/19 12:54:16;;;;;;;8.33;3.37;;;37.50;32.40;;;;;;4974667;28;20505;-64
2022/07/19 12:56:45;;;;;;;3.10;2.90;;;37.60;32.20;;;;;;4974775;28;20801;-64
2022/07/19 13:01:55;;;;;;;3.10;2.90;;;37.80;32.40;;;;;;4974421;28;20476;-65
2022/07/19 13:04:22;;;;;;;4.63;3.93;;;37.90;32.40;;;;;;4974924;28;20454;-64
2022/07/19 13:06:49;;;;;;;3.57;3.00;;;37.80;31.90;;;;;;4974507;28;20941;-64
2022/07/19 13:09:16;;;;;;;5.50;3.60;;;37.70;32.40;;;;;;4974950;28;20462;-64
2022/07/19 13:11:42;;;;;;;5.07;3.33;;;37.70;32.60;;;;;;4974620;28;20493;-65
2022/07/19 13:14:11;;;;;;;4.50;3.40;;;37.50;32.80;;;;;;4974769;28;20454;-65
2022/07/19 13:16:38;;;;;;;3.37;3.07;;;37.50;34.80;;;;;;4979200;28;20450;-65
2022/07/19 13:19:05;;;;;;;3.60;3.40;;;37.70;33.50;;;;;;4975287;28;20462;-66
2022/07/19 13:21:32;;;;;;;3.63;2.87;;;37.60;33.10;;;;;;4974677;28;20469;-65
2022/07/19 13:23:59;;;;;;;3.60;2.95;;;37.60;33.20;;;;;;4973917;28;20459;-65
2022/07/19 13:26:26;;;;;;;3.33;3.13;;;37.80;33.80;;;;;;4974856;28;20566;-65
2022/07/19 13:28:52;;;;;;;3.17;2.97;;;37.80;33.30;;;;;;4974584;28;20465;-64
2022/07/19 13:31:22;;;;;;;3.63;3.00;;;37.80;32.70;;;;;;4973884;28;20968;-65
2022/07/19 13:33:48;;;;;;;3.10;2.90;;;37.70;33.00;;;;;;4974012;28;20684;-64
2022/07/19 13:36:15;;;;;;;4.07;3.17;;;37.70;34.00;;;;;;4974655;28;20468;-65
2022/07/19 13:38:42;;;;;;;13.03;3.50;;;37.60;33.80;;;;;;4977651;28;20959;-65
2022/07/19 13:41:09;;;;;;;4.20;3.20;;;37.30;33.90;;;;;;4977855;28;20496;-67
2022/07/19 13:43:36;;;;;;;4.23;3.83;;;37.10;34.30;;;;;;4977875;28;20461;-65
2022/07/19 13:46:03;;;;;;;4.30;3.87;;;37.10;34.40;;;;;;4977811;28;20454;-65
2022/07/19 13:48:31;;;;;;;3.33;3.07;;;37.20;34.50;;;;;;4978711;28;20454;-65
2022/07/19 13:50:58;;;;;;;3.73;3.20;;;37.40;34.20;;;;;;4978347;28;20481;-66
2022/07/19 13:53:25;;;;;;;6.10;3.87;;;37.50;34.20;;;;;;4978164;28;20980;-64
2022/07/19 13:55:51;;;;;;;4.13;3.40;;;37.40;33.60;;;;;;4979884;28;20818;-66
2022/07/19 13:58:18;;;;;;;5.07;4.23;;;37.40;33.90;;;;;;4980696;28;20469;-70
2022/07/19 14:00:46;;;;;;;3.73;3.37;;;37.40;33.90;;;;;;4979644;28;20486;-70
2022/07/19 14:03:14;;;;;;;7.00;3.63;;;37.40;33.30;;;;;;4979293;28;20458;-70
2022/07/19 14:05:42;;;;;;;3.80;3.57;;;37.40;32.90;;;;;;4978472;28;20545;-69
2022/07/19 14:08:09;;;;;;;4.23;3.50;;;37.40;33.60;;;;;;4978733;28;20476;-70
2022/07/19 14:10:36;;;;;;;5.53;3.70;;;37.50;33.70;;;;;;4979011;28;20481;-70
2022/07/19 14:13:03;;;;;;;8.40;3.63;;;37.60;33.80;;;;;;4979103;28;20564;-71
2022/07/19 14:15:30;;;;;;;3.30;3.00;;;37.60;35.00;;;;;;4978952;28;20458;-70
2022/07/19 14:17:57;;;;;;;7.77;3.43;;;37.40;33.10;;;;;;4978680;28;20460;-69
2022/07/19 14:20:25;;;;;;;4.00;3.20;;;37.30;33.30;;;;;;4978316;28;20465;-69
2022/07/19 14:22:53;;;;;;;5.90;3.10;;;37.40;34.00;;;;;;4977928;28;20450;-70
2022/07/19 14:25:22;;;;;;;4.67;3.20;;;37.40;34.20;;;;;;4978409;28;20454;-71
2022/07/19 14:27:49;;;;;;;3.40;2.77;;;37.50;33.20;;;;;;4979652;28;20596;-69
2022/07/19 14:30:16;;;;;;;3.77;3.47;;;37.50;34.30;;;;;;4978304;28;20793;-69
2022/07/19 14:32:43;;;;;;;6.80;3.43;;;37.60;34.80;;;;;;4977369;28;20510;-70
2022/07/19 14:35:10;;;;;;;6.20;3.40;;;37.60;34.40;;;;;;4977689;28;20458;-70
2022/07/19 14:37:36;;;;;;;4.00;3.30;;;37.70;33.60;;;;;;4977495;28;20442;-70
2022/07/19 14:40:06;;;;;;;7.20;3.70;;;37.50;33.60;;;;;;4977421;28;20454;-70
2022/07/19 14:42:33;;;;;;;3.73;3.47;;;37.30;33.80;;;;;;4977125;28;20559;-70
2022/07/19 14:44:59;;;;;;;3.60;3.23;;;37.20;34.20;;;;;;4977097;28;20465;-69
2022/07/19 14:47:26;;;;;;;3.60;3.30;;;37.10;33.10;;;;;;4977262;28;20504;-71
2022/07/19 14:49:53;;;;;;;3.53;2.80;;;37.10;33.50;;;;;;4976307;28;20454;-69
2022/07/19 14:52:20;;;;;;;3.50;3.20;;;37.20;35.00;;;;;;4976978;28;20485;-69
2022/07/19 14:54:46;;;;;;;3.43;3.20;;;37.10;33.60;;;;;;4976480;28;20941;-70
2022/07/19 14:57:15;;;;;;;3.87;2.77;;;37.20;34.40;;;;;;4977071;28;20461;-69
2022/07/19 14:59:41;;;;;;;3.50;2.90;;;37.10;34.10;;;;;;4976622;28;20485;-71
2022/07/19 15:02:09;;;;;;;5.20;3.10;;;37.20;33.70;;;;;;4976605;28;20536;-69
2022/07/19 15:04:36;;;;;;;4.03;3.07;;;37.10;33.40;;;;;;4976873;28;20489;-69
2022/07/19 15:07:03;;;;;;;3.60;2.93;;;37.10;33.60;;;;;;4976686;28;20465;-69
2022/07/19 15:09:30;;;;;;;3.20;2.90;;;37.20;33.70;;;;;;4976173;28;20961;-70
2022/07/19 15:11:59;;;;;;;3.40;3.00;;;37.20;33.60;;;;;;4976520;28;20482;-75
2022/07/19 15:14:29;;;;;;;3.60;3.30;;;37.20;33.60;;;;;;4977097;28;20501;-69
2022/07/19 15:16:56;;;;;;;4.03;3.10;;;37.10;33.20;;;;;;4976342;28;20799;-70
2022/07/19 15:19:23;;;;;;;3.50;2.70;;;37.20;33.70;;;;;;4976806;28;20941;-69
2022/07/19 15:21:50;;;;;;;3.10;2.80;;;37.20;33.10;;;;;;4977408;28;20481;-70
2022/07/19 15:24:17;;;;;;;3.50;3.13;;;37.20;32.50;;;;;;4990021;28;20440;-70
2022/07/19 15:26:43;;;;;;;5.70;3.10;;;37.20;32.70;;;;;;4992647;28;20461;-71
2022/07/19 15:29:10;;;;;;;4.20;3.20;;;37.30;32.70;;;;;;4981181;28;20450;-71
2022/07/19 15:31:39;;;;;;;5.10;3.47;;;37.40;32.80;;;;;;4977716;28;20489;-71
2022/07/19 15:34:06;;;;;;;3.70;3.50;;;37.40;33.10;;;;;;4976519;28;20530;-71
2022/07/19 15:36:32;;;;;;;4.37;2.93;;;37.40;33.30;;;;;;4976031;28;20482;-71
2022/07/19 15:38:59;;;;;;;3.30;3.00;;;37.40;32.70;;;;;;4976331;28;20460;-71
2022/07/19 15:41:26;;;;;;;4.77;3.03;;;37.40;33.40;;;;;;4976204;28;20474;-71
2022/07/19 15:43:53;;;;;;;5.10;3.17;;;37.30;32.80;;;;;;4975588;28;20985;-70
2022/07/19 15:46:20;;;;;;;3.13;2.93;;;37.40;33.00;;;;;;4976090;28;20465;-69
2022/07/19 15:48:48;;;;;;;4.23;2.50;;;37.30;31.90;;;;;;4976691;28;20454;-66
2022/07/19 15:51:14;;;;;;;2.97;2.77;;;37.30;32.40;;;;;;4977039;28;20977;-65
2022/07/19 15:53:41;;;;;;;2.90;2.70;;;37.20;32.50;;;;;;4977792;28;20454;-67
2022/07/19 15:56:08;;;;;;;5.87;3.40;;;37.10;32.30;;;;;;4975607;28;20485;-68
2022/07/19 15:58:35;;;;;;;7.90;2.67;;;37.20;32.40;;;;;;4975763;28;20458;-68
2022/07/19 16:01:03;;;;;;;3.17;2.87;;;37.10;32.40;;;;;;4980537;28;21032;-67
2022/07/19 16:03:29;;;;;;;6.30;3.03;;;37.20;32.90;;;;;;4979350;28;20452;-67
2022/07/19 16:05:57;;;;;;;2.93;2.60;;;37.30;32.40;;;;;;4979312;28;20469;-68
2022/07/19 16:08:25;;;;;;;3.40;2.70;;;37.20;32.50;;;;;;4977095;28;20458;-67
2022/07/19 16:10:53;;;;;;;2.97;2.77;;;37.20;32.10;;;;;;4979900;28;20482;-68
2022/07/19 16:13:20;;;;;;;5.60;2.63;;;37.10;32.50;;;;;;4979293;28;20490;-68
2022/07/19 16:15:47;;;;;;;5.60;3.30;;;37.10;33.50;;;;;;4976867;28;20454;-68
2022/07/19 16:18:13;;;;;;;3.40;3.10;;;37.20;33.00;;;;;;4975962;28;20937;-67
2022/07/19 16:20:40;;;;;;;2.90;2.70;;;37.20;32.80;;;;;;4975952;28;20969;-67
2022/07/19 16:23:08;;;;;;;2.70;2.50;;;37.20;32.00;;;;;;4975776;28;20453;-67
2022/07/19 16:25:35;;;;;;;3.30;3.10;;;37.10;32.00;;;;;;4975673;28;20465;-67
2022/07/19 16:28:02;;;;;;;4.63;3.20;;;37.10;32.60;;;;;;4975463;28;20454;-67
2022/07/19 16:30:29;;;;;;;4.43;2.73;;;36.90;32.50;;;;;;4975087;28;20474;-67
2022/07/19 16:32:57;;;;;;;3.80;3.60;;;36.80;33.40;;;;;;4974868;28;21001;-67
2022/07/19 16:35:23;;;;;;;3.17;3.07;;;36.60;32.70;;;;;;4975349;28;20458;-67
2022/07/19 16:37:50;;;;;;;3.10;2.70;;;36.50;32.90;;;;;;4975495;28;20454;-67
2022/07/19 16:40:18;;;;;;;3.37;3.07;;;36.50;33.00;;;;;;4975274;28;20473;-68
2022/07/19 16:42:45;;;;;;;5.33;2.77;;;36.50;32.80;;;;;;4975045;28;20480;-67
2022/07/19 16:45:12;;;;;;;6.53;3.30;;;36.40;32.80;;;;;;4975075;28;20466;-66
2022/07/19 16:47:38;;;;;;;6.87;3.30;;;36.30;33.10;;;;;;4975050;28;20458;-66
2022/07/19 16:50:06;;;;;;;3.67;2.80;;;36.20;32.80;;;;;;4974716;28;20963;-66
2022/07/19 16:52:33;;;;;;;4.60;3.80;;;36.20;33.00;;;;;;4974643;28;20482;-66
2022/07/19 16:55:00;;;;;;;5.00;3.10;;;36.20;32.90;;;;;;4974641;28;20458;-66
2022/07/19 16:57:28;;;;;;;3.10;2.83;;;36.20;32.70;;;;;;4974916;28;20479;-66